Time;durP1;ratioP1;P1;durP2;ratioP2;P2;SDS_P1;SDS_P2;PMS_P1;PMS_P2;Temp;Humidity;BMP_temperature;BMP_pressure;BME280_temperature;BME280_humidity;BME280_pressure;Samples;Min_cycle;Max_cycle;Signal;HPM_P1;HPM_P2
2021/09/25 00:01:50;;;;;;;12.63;7.38;;;;;;;;;;5112217;28;20588;-61
2021/09/25 00:04:16;;;;;;;10.82;8.23;;;;;;;;;;5115819;28;20030;-61
2021/09/25 00:06:42;;;;;;;12.18;7.97;;;;;;;;;;5112606;28;20058;-62
2021/09/25 00:09:08;;;;;;;14.25;8.55;;;;;;;;;;5111837;28;20059;-61
2021/09/25 00:11:34;;;;;;;12.88;7.57;;;;;;;;;;5111002;28;20028;-61
2021/09/25 00:14:00;;;;;;;12.23;8.02;;;;;;;;;;5111723;28;20027;-62
2021/09/25 00:16:26;;;;;;;11.35;7.70;;;;;;;;;;5114227;28;20031;-62
2021/09/25 00:18:56;;;;;;;9.45;7.53;;;;;;;;;;5112250;28;20023;-62
2021/09/25 00:21:23;;;;;;;12.38;7.82;;;;;;;;;;5111068;28;20027;-61
2021/09/25 00:23:48;;;;;;;13.00;7.82;;;;;;;;;;5111818;28;20031;-62
2021/09/25 00:26:15;;;;;;;9.35;7.78;;;;;;;;;;5111092;28;20036;-62
2021/09/25 00:28:41;;;;;;;11.93;7.50;;;;;;;;;;5105256;28;20043;-61
2021/09/25 00:31:07;;;;;;;10.63;7.68;;;;;;;;;;5114588;28;20035;-62
2021/09/25 00:33:33;;;;;;;10.95;7.40;;;;;;;;;;5105330;28;20024;-62
2021/09/25 00:35:59;;;;;;;10.50;7.50;;;;;;;;;;5105172;28;20138;-61
2021/09/25 00:38:25;;;;;;;10.98;7.47;;;;;;;;;;5111546;28;20016;-62
2021/09/25 00:40:51;;;;;;;11.13;7.32;;;;;;;;;;5111326;28;20294;-61
2021/09/25 00:43:17;;;;;;;13.07;7.35;;;;;;;;;;5113575;28;20051;-62
2021/09/25 00:45:43;;;;;;;10.45;7.70;;;;;;;;;;5112082;28;20031;-62
2021/09/25 00:48:09;;;;;;;10.90;7.75;;;;;;;;;;5110914;28;20502;-61
2021/09/25 00:50:35;;;;;;;9.75;7.43;;;;;;;;;;5111311;28;20062;-61
2021/09/25 00:53:01;;;;;;;12.13;7.65;;;;;;;;;;5110274;28;20107;-62
2021/09/25 00:55:28;;;;;;;9.40;7.07;;;;;;;;;;5112968;28;20384;-61
2021/09/25 00:57:59;;;;;;;12.27;7.57;;;;;;;;;;5112272;28;20031;-61
2021/09/25 01:00:25;;;;;;;11.27;8.02;;;;;;;;;;5110630;28;20047;-61
2021/09/25 01:02:51;;;;;;;12.70;7.93;;;;;;;;;;5111306;28;20028;-61
2021/09/25 01:05:20;;;;;;;12.95;8.07;;;;;;;;;;5110675;28;20016;-61
2021/09/25 01:07:46;;;;;;;9.18;7.22;;;;;;;;;;5110803;28;20020;-62
2021/09/25 01:10:12;;;;;;;12.15;7.93;;;;;;;;;;5114176;28;20157;-61
2021/09/25 01:12:38;;;;;;;10.88;7.72;;;;;;;;;;5110316;28;20044;-61
2021/09/25 01:15:06;;;;;;;12.65;7.68;;;;;;;;;;5104894;28;20532;-61
2021/09/25 01:17:32;;;;;;;9.18;7.22;;;;;;;;;;5110396;28;20046;-61
2021/09/25 01:19:58;;;;;;;12.82;7.70;;;;;;;;;;5110589;28;20018;-62
2021/09/25 01:22:25;;;;;;;9.25;6.72;;;;;;;;;;5113091;28;20463;-62
2021/09/25 01:24:51;;;;;;;10.82;7.40;;;;;;;;;;5111176;28;20024;-61
2021/09/25 01:27:17;;;;;;;10.88;6.97;;;;;;;;;;5110177;28;20031;-62
2021/09/25 01:29:43;;;;;;;10.93;7.32;;;;;;;;;;5104407;28;20491;-62
2021/09/25 01:32:09;;;;;;;10.45;7.70;;;;;;;;;;5110233;28;20034;-62
2021/09/25 01:34:36;;;;;;;11.73;7.25;;;;;;;;;;5111688;28;20100;-62
2021/09/25 01:37:02;;;;;;;10.57;7.03;;;;;;;;;;5110993;28;20035;-62
2021/09/25 01:39:30;;;;;;;11.52;7.40;;;;;;;;;;5109810;28;20019;-62
2021/09/25 01:41:56;;;;;;;9.35;7.10;;;;;;;;;;5109857;28;20027;-62
2021/09/25 01:44:22;;;;;;;11.40;7.40;;;;;;;;;;5109668;28;20106;-61
2021/09/25 01:46:49;;;;;;;15.50;7.85;;;;;;;;;;5110162;28;20848;-61
2021/09/25 01:49:15;;;;;;;9.88;7.40;;;;;;;;;;5113307;28;20024;-62
2021/09/25 01:51:41;;;;;;;10.18;6.60;;;;;;;;;;5110043;28;20072;-62
2021/09/25 01:54:07;;;;;;;9.32;6.90;;;;;;;;;;5109386;28;20145;-61
2021/09/25 01:56:33;;;;;;;9.43;6.93;;;;;;;;;;5110014;28;20039;-61
2021/09/25 01:59:00;;;;;;;9.93;6.80;;;;;;;;;;5109812;28;20024;-61
2021/09/25 02:01:25;;;;;;;10.45;6.97;;;;;;;;;;5112332;28;20390;-62
2021/09/25 02:03:51;;;;;;;10.98;7.13;;;;;;;;;;5111013;28;20019;-62
2021/09/25 02:06:18;;;;;;;9.57;7.63;;;;;;;;;;5108800;28;20039;-62
2021/09/25 02:08:45;;;;;;;9.68;7.05;;;;;;;;;;5109479;28;20080;-62
2021/09/25 02:11:11;;;;;;;12.52;7.90;;;;;;;;;;5109647;28;20353;-62
2021/09/25 02:13:37;;;;;;;11.10;7.13;;;;;;;;;;5110659;28;20039;-62
2021/09/25 02:16:04;;;;;;;9.50;6.82;;;;;;;;;;5112119;28;20153;-61
2021/09/25 02:18:30;;;;;;;10.40;7.20;;;;;;;;;;5108365;28;20104;-62
2021/09/25 02:20:56;;;;;;;10.98;7.18;;;;;;;;;;5111384;28;20466;-61
2021/09/25 02:23:22;;;;;;;9.40;6.70;;;;;;;;;;5109472;28;20026;-62
2021/09/25 02:25:48;;;;;;;8.30;6.88;;;;;;;;;;5109539;28;20024;-62
2021/09/25 02:28:14;;;;;;;8.90;6.65;;;;;;;;;;5112468;28;20058;-62
2021/09/25 02:30:40;;;;;;;9.32;7.32;;;;;;;;;;5110441;28;20402;-61
2021/09/25 02:33:07;;;;;;;11.35;7.40;;;;;;;;;;5104290;28;20028;-62
2021/09/25 02:35:33;;;;;;;10.63;6.93;;;;;;;;;;5103067;28;20024;-62
2021/09/25 02:37:59;;;;;;;11.00;7.20;;;;;;;;;;5109261;28;20027;-62
2021/09/25 02:40:25;;;;;;;10.10;7.03;;;;;;;;;;5111609;28;20024;-61
2021/09/25 02:42:51;;;;;;;13.50;7.47;;;;;;;;;;5109661;28;20050;-62
2021/09/25 02:45:18;;;;;;;11.57;7.15;;;;;;;;;;5108800;28;20094;-62
2021/09/25 02:47:44;;;;;;;12.60;7.18;;;;;;;;;;5106353;28;20023;-61
2021/09/25 02:50:11;;;;;;;10.52;6.88;;;;;;;;;;5096202;28;20497;-62
2021/09/25 02:52:38;;;;;;;9.20;6.95;;;;;;;;;;5109839;28;20043;-62
2021/09/25 02:55:04;;;;;;;11.52;6.88;;;;;;;;;;5111335;28;20026;-61
2021/09/25 02:57:30;;;;;;;9.25;6.88;;;;;;;;;;5107731;28;20042;-63
2021/09/25 02:59:56;;;;;;;8.10;6.70;;;;;;;;;;5108733;28;20023;-62
2021/09/25 03:02:22;;;;;;;12.43;6.88;;;;;;;;;;5108882;28;20542;-61
2021/09/25 03:04:48;;;;;;;9.32;7.03;;;;;;;;;;5108810;28;20032;-61
2021/09/25 03:07:14;;;;;;;10.40;7.40;;;;;;;;;;5111886;28;20027;-61
2021/09/25 03:09:40;;;;;;;11.65;7.72;;;;;;;;;;5108916;28;20031;-61
2021/09/25 03:12:06;;;;;;;9.98;6.75;;;;;;;;;;5108814;28;20038;-61
2021/09/25 03:14:32;;;;;;;11.23;6.93;;;;;;;;;;5108693;28;20051;-61
2021/09/25 03:16:58;;;;;;;9.10;6.40;;;;;;;;;;5108314;28;20074;-60
2021/09/25 03:19:24;;;;;;;11.68;6.78;;;;;;;;;;5110628;28;20020;-61
2021/09/25 03:21:50;;;;;;;9.57;6.63;;;;;;;;;;5109844;28;20035;-61
2021/09/25 03:24:16;;;;;;;12.13;7.03;;;;;;;;;;5108418;28;20027;-61
2021/09/25 03:26:42;;;;;;;10.80;7.00;;;;;;;;;;5108629;28;20599;-61
2021/09/25 03:29:10;;;;;;;10.52;7.70;;;;;;;;;;5108279;28;20048;-61
2021/09/25 03:31:36;;;;;;;10.13;7.00;;;;;;;;;;5109118;28;20054;-61
2021/09/25 03:34:02;;;;;;;9.75;7.18;;;;;;;;;;5110845;28;20534;-61
2021/09/25 03:36:28;;;;;;;9.38;6.88;;;;;;;;;;5108261;28;20040;-61
2021/09/25 03:38:54;;;;;;;10.48;6.97;;;;;;;;;;5108634;28;20070;-61
2021/09/25 03:41:20;;;;;;;9.60;7.05;;;;;;;;;;5108380;28;20051;-61
2021/09/25 03:43:50;;;;;;;10.10;7.15;;;;;;;;;;5107903;28;20066;-61
2021/09/25 03:46:17;;;;;;;9.93;6.75;;;;;;;;;;5111675;28;20026;-61
2021/09/25 03:48:42;;;;;;;8.63;6.78;;;;;;;;;;5108872;28;20019;-61
2021/09/25 03:51:08;;;;;;;12.25;6.82;;;;;;;;;;5108520;28;20039;-61
2021/09/25 03:53:34;;;;;;;8.35;6.47;;;;;;;;;;5108008;28;20042;-61
2021/09/25 03:56:07;;;;;;;10.60;6.82;;;;;;;;;;5108318;28;20036;-61
2021/09/25 03:58:33;;;;;;;9.93;6.80;;;;;;;;;;5109876;28;20107;-61
2021/09/25 04:00:59;;;;;;;8.88;6.43;;;;;;;;;;5110194;28;20106;-61
2021/09/25 04:03:25;;;;;;;8.45;6.72;;;;;;;;;;5107593;28;20034;-61
2021/09/25 04:05:51;;;;;;;11.23;6.55;;;;;;;;;;5107907;28;20092;-61
2021/09/25 04:08:17;;;;;;;10.80;7.32;;;;;;;;;;5109530;28;20024;-61
2021/09/25 04:10:42;;;;;;;9.20;6.70;;;;;;;;;;5096209;28;20104;-61
2021/09/25 04:13:08;;;;;;;9.60;6.72;;;;;;;;;;5115378;28;20379;-61
2021/09/25 04:15:34;;;;;;;12.00;6.93;;;;;;;;;;5110955;28;20051;-61
2021/09/25 04:18:00;;;;;;;9.98;6.68;;;;;;;;;;5111571;28;20483;-61
2021/09/25 04:20:26;;;;;;;8.40;6.75;;;;;;;;;;5111898;28;20012;-61
2021/09/25 04:22:52;;;;;;;9.25;6.45;;;;;;;;;;5111413;28;20023;-61
2021/09/25 04:25:19;;;;;;;10.27;6.97;;;;;;;;;;5114395;28;20023;-61
2021/09/25 04:27:49;;;;;;;9.18;6.70;;;;;;;;;;5110716;28;20047;-61
2021/09/25 04:30:15;;;;;;;10.25;7.20;;;;;;;;;;5105379;28;20115;-61
2021/09/25 04:32:43;;;;;;;11.38;7.22;;;;;;;;;;5111070;28;20097;-61
2021/09/25 04:35:09;;;;;;;8.75;7.00;;;;;;;;;;5111153;28;20504;-61
2021/09/25 04:37:35;;;;;;;13.77;7.05;;;;;;;;;;5112783;28;20039;-61
2021/09/25 04:40:01;;;;;;;9.35;7.07;;;;;;;;;;5113389;28;20520;-61
2021/09/25 04:42:27;;;;;;;8.80;6.25;;;;;;;;;;5111275;28;20032;-61
2021/09/25 04:44:53;;;;;;;9.52;6.43;;;;;;;;;;5110758;28;20028;-61
2021/09/25 04:47:19;;;;;;;11.98;7.05;;;;;;;;;;5110366;28;20436;-63
2021/09/25 04:49:45;;;;;;;9.63;7.00;;;;;;;;;;5107205;28;20024;-63
2021/09/25 04:52:11;;;;;;;9.35;6.60;;;;;;;;;;5106969;28;20031;-62
2021/09/25 04:54:37;;;;;;;9.02;6.47;;;;;;;;;;5106932;28;20062;-62
2021/09/25 04:57:03;;;;;;;10.07;6.25;;;;;;;;;;5107181;28;20042;-61
2021/09/25 04:59:29;;;;;;;7.68;6.20;;;;;;;;;;5106031;28;20023;-61
2021/09/25 05:01:55;;;;;;;8.15;6.28;;;;;;;;;;5104774;28;20022;-61
2021/09/25 05:04:21;;;;;;;9.60;6.15;;;;;;;;;;5105221;28;20023;-61
2021/09/25 05:06:47;;;;;;;9.25;6.32;;;;;;;;;;5104195;28;20035;-61
2021/09/25 05:09:13;;;;;;;8.18;6.60;;;;;;;;;;5106807;28;20038;-61
2021/09/25 05:11:39;;;;;;;9.55;6.38;;;;;;;;;;5110458;28;20107;-62
2021/09/25 05:14:05;;;;;;;11.80;6.85;;;;;;;;;;5110785;28;20102;-61
2021/09/25 05:16:31;;;;;;;9.38;5.93;;;;;;;;;;5111126;28;20050;-60
2021/09/25 05:18:57;;;;;;;8.52;6.22;;;;;;;;;;5111809;28;20023;-61
2021/09/25 05:21:24;;;;;;;8.55;6.43;;;;;;;;;;5109998;28;20368;-61
2021/09/25 05:23:50;;;;;;;12.05;6.68;;;;;;;;;;5109809;28;20027;-61
2021/09/25 05:26:16;;;;;;;7.65;6.00;;;;;;;;;;5110239;28;20023;-61
2021/09/25 05:28:42;;;;;;;9.52;6.10;;;;;;;;;;5094589;28;20206;-72
2021/09/25 05:31:11;;;;;;;8.27;5.88;;;;;;;;;;5113100;28;20024;-72
2021/09/25 05:33:38;;;;;;;8.48;6.00;;;;;;;;;;5109777;28;20422;-68
2021/09/25 05:36:04;;;;;;;10.52;6.25;;;;;;;;;;5110206;28;20044;-74
2021/09/25 05:38:30;;;;;;;12.43;6.80;;;;;;;;;;5110119;28;20379;-70
2021/09/25 05:40:56;;;;;;;10.98;6.63;;;;;;;;;;5109993;28;20028;-71
2021/09/25 05:43:22;;;;;;;11.63;6.43;;;;;;;;;;5111446;28;20024;-72
2021/09/25 05:45:48;;;;;;;11.70;6.25;;;;;;;;;;5110753;28;20368;-71
2021/09/25 05:48:14;;;;;;;12.02;6.68;;;;;;;;;;5109985;28;20042;-68
2021/09/25 05:50:40;;;;;;;10.60;6.35;;;;;;;;;;5109898;28;20104;-70
2021/09/25 05:53:06;;;;;;;8.95;6.40;;;;;;;;;;5109550;28;20043;-69
2021/09/25 05:55:32;;;;;;;9.02;6.00;;;;;;;;;;5112012;28;20091;-69
2021/09/25 05:58:01;;;;;;;14.07;6.68;;;;;;;;;;5111313;28;20390;-71
2021/09/25 06:00:27;;;;;;;10.60;6.50;;;;;;;;;;5108377;28;20368;-71
2021/09/25 06:02:54;;;;;;;8.82;6.45;;;;;;;;;;5109161;28;20039;-73
2021/09/25 06:05:20;;;;;;;8.50;6.82;;;;;;;;;;5107720;28;20106;-74
2021/09/25 06:07:46;;;;;;;9.50;6.78;;;;;;;;;;5104430;28;20090;-73
2021/09/25 06:10:12;;;;;;;14.00;6.55;;;;;;;;;;5104948;28;20139;-74
2021/09/25 06:12:38;;;;;;;9.38;6.00;;;;;;;;;;5103787;28;20036;-71
2021/09/25 06:15:04;;;;;;;8.70;6.63;;;;;;;;;;5108346;28;20023;-72
2021/09/25 06:17:30;;;;;;;9.82;6.15;;;;;;;;;;5108676;28;20096;-73
2021/09/25 06:19:56;;;;;;;8.93;6.03;;;;;;;;;;5109922;28;20020;-72
2021/09/25 06:22:25;;;;;;;8.05;6.45;;;;;;;;;;5112392;28;20392;-78
2021/09/25 06:24:51;;;;;;;10.75;6.43;;;;;;;;;;5107147;28;20012;-77
2021/09/25 06:27:17;;;;;;;12.15;6.35;;;;;;;;;;5104649;28;20131;-77
2021/09/25 06:29:43;;;;;;;11.32;5.95;;;;;;;;;;5107069;28;20384;-77
2021/09/25 06:32:09;;;;;;;11.27;6.40;;;;;;;;;;5099484;28;20027;-76
2021/09/25 06:34:35;;;;;;;10.27;6.20;;;;;;;;;;5100976;28;20126;-76
2021/09/25 06:37:01;;;;;;;9.77;6.50;;;;;;;;;;5097207;28;20028;-76
2021/09/25 06:39:27;;;;;;;9.75;5.82;;;;;;;;;;5109627;28;20440;-76
2021/09/25 06:41:53;;;;;;;8.50;5.68;;;;;;;;;;5108782;28;20032;-79
2021/09/25 06:44:19;;;;;;;7.05;5.38;;;;;;;;;;5108122;28;20026;-79
2021/09/25 06:46:45;;;;;;;8.85;5.82;;;;;;;;;;5097899;28;20054;-78
2021/09/25 06:49:11;;;;;;;8.38;5.75;;;;;;;;;;5108248;28;20169;-78
2021/09/25 06:51:37;;;;;;;8.13;6.28;;;;;;;;;;5108149;28;20518;-78
2021/09/25 06:54:03;;;;;;;7.78;5.70;;;;;;;;;;5103266;28;20027;-78
2021/09/25 06:56:29;;;;;;;9.88;6.05;;;;;;;;;;5108632;28;20479;-78
2021/09/25 06:58:55;;;;;;;8.95;5.82;;;;;;;;;;5109125;28;20024;-79
2021/09/25 07:01:21;;;;;;;9.50;5.32;;;;;;;;;;5110933;28;20023;-78
2021/09/25 07:03:47;;;;;;;8.25;5.55;;;;;;;;;;5104294;28;20046;-78
2021/09/25 07:06:13;;;;;;;8.82;5.25;;;;;;;;;;5102871;28;20050;-78
2021/09/25 07:08:39;;;;;;;11.02;5.05;;;;;;;;;;5108447;28;20032;-78
2021/09/25 07:11:06;;;;;;;6.88;5.40;;;;;;;;;;5107473;28;20097;-78
2021/09/25 07:13:32;;;;;;;8.02;4.90;;;;;;;;;;5110399;28;20059;-78
2021/09/25 07:15:58;;;;;;;10.07;5.32;;;;;;;;;;5110198;28;20047;-78
2021/09/25 07:18:24;;;;;;;7.82;4.90;;;;;;;;;;5108559;28;20391;-77
2021/09/25 07:20:51;;;;;;;11.25;5.00;;;;;;;;;;5102936;28;20088;-78
2021/09/25 07:23:17;;;;;;;7.50;4.78;;;;;;;;;;5102692;28;20032;-77
2021/09/25 07:25:43;;;;;;;9.00;5.07;;;;;;;;;;5092355;28;20105;-77
2021/09/25 07:28:09;;;;;;;7.65;5.47;;;;;;;;;;5110397;28;20050;-78
2021/09/25 07:30:37;;;;;;;9.55;5.63;;;;;;;;;;5108225;28;20024;-78
2021/09/25 07:33:04;;;;;;;10.63;5.10;;;;;;;;;;5108312;28;20037;-78
2021/09/25 07:35:30;;;;;;;6.72;5.10;;;;;;;;;;5108367;28;20024;-78
2021/09/25 07:37:56;;;;;;;8.13;4.85;;;;;;;;;;5108124;28;20021;-78
2021/09/25 07:40:22;;;;;;;7.35;4.82;;;;;;;;;;5110777;28;20364;-79
2021/09/25 07:42:48;;;;;;;7.75;4.68;;;;;;;;;;5110162;28;20062;-79
2021/09/25 07:45:14;;;;;;;8.00;4.70;;;;;;;;;;5112487;28;20027;-78
2021/09/25 07:47:40;;;;;;;7.28;5.10;;;;;;;;;;5112371;28;20028;-79
2021/09/25 07:50:06;;;;;;;8.77;4.80;;;;;;;;;;5112180;28;20062;-79
2021/09/25 07:52:32;;;;;;;10.75;4.65;;;;;;;;;;5114432;28;20393;-79
2021/09/25 07:54:59;;;;;;;8.82;4.63;;;;;;;;;;5112283;28;20360;-79
2021/09/25 07:57:25;;;;;;;7.75;4.35;;;;;;;;;;5112033;28;20028;-78
2021/09/25 07:59:51;;;;;;;7.13;4.20;;;;;;;;;;5112461;28;20119;-78
2021/09/25 08:02:17;;;;;;;7.40;4.57;;;;;;;;;;5106998;28;20586;-79
2021/09/25 08:04:42;;;;;;;10.02;4.72;;;;;;;;;;5095881;28;20028;-79
2021/09/25 08:07:08;;;;;;;8.85;4.32;;;;;;;;;;5113666;28;20118;-78
2021/09/25 08:09:35;;;;;;;9.02;4.38;;;;;;;;;;5111442;28;20027;-78
2021/09/25 08:12:01;;;;;;;7.57;3.85;;;;;;;;;;5112108;27;20557;-78
2021/09/25 08:14:27;;;;;;;8.05;4.45;;;;;;;;;;5111185;28;20098;-78
2021/09/25 08:16:52;;;;;;;8.27;4.60;;;;;;;;;;5111914;28;20560;-78
2021/09/25 08:19:18;;;;;;;9.50;4.50;;;;;;;;;;5114924;28;20114;-78
2021/09/25 08:21:45;;;;;;;7.38;4.35;;;;;;;;;;5113024;28;20023;-78
2021/09/25 08:24:11;;;;;;;8.13;4.35;;;;;;;;;;5105117;28;20073;-78
2021/09/25 08:26:37;;;;;;;6.60;4.20;;;;;;;;;;5111705;28;20024;-78
2021/09/25 08:29:04;;;;;;;7.10;4.18;;;;;;;;;;5111647;28;20544;-78
2021/09/25 08:31:30;;;;;;;7.63;4.50;;;;;;;;;;5114088;28;20016;-78
2021/09/25 08:33:56;;;;;;;6.13;4.45;;;;;;;;;;5113020;28;20148;-79
2021/09/25 08:36:22;;;;;;;5.30;3.55;;;;;;;;;;5110575;28;20036;-78
2021/09/25 08:38:48;;;;;;;5.78;3.97;;;;;;;;;;5112645;28;20068;-78
2021/09/25 08:41:15;;;;;;;9.15;4.30;;;;;;;;;;5111190;28;20106;-78
2021/09/25 08:43:41;;;;;;;8.48;4.45;;;;;;;;;;5112166;28;20024;-78
2021/09/25 08:46:08;;;;;;;5.60;4.25;;;;;;;;;;5113766;28;20029;-77
2021/09/25 08:48:35;;;;;;;6.60;4.45;;;;;;;;;;5111121;28;20363;-78
2021/09/25 08:51:01;;;;;;;6.68;4.40;;;;;;;;;;5111160;28;20023;-78
2021/09/25 08:53:27;;;;;;;5.78;3.97;;;;;;;;;;5110240;28;20053;-78
2021/09/25 08:55:53;;;;;;;7.10;3.90;;;;;;;;;;5109574;28;20024;-78
2021/09/25 08:58:19;;;;;;;7.55;4.20;;;;;;;;;;5114134;28;20038;-78
2021/09/25 09:00:47;;;;;;;8.77;4.28;;;;;;;;;;5112036;28;20089;-78
2021/09/25 09:03:16;;;;;;;6.18;4.07;;;;;;;;;;5110294;28;20073;-77
2021/09/25 09:05:42;;;;;;;7.35;4.45;;;;;;;;;;5099095;28;20078;-79
2021/09/25 09:08:08;;;;;;;7.07;3.80;;;;;;;;;;5097773;28;20031;-78
2021/09/25 09:10:34;;;;;;;6.25;3.88;;;;;;;;;;5111025;28;20103;-78
2021/09/25 09:13:01;;;;;;;6.05;4.18;;;;;;;;;;5112697;28;20032;-78
2021/09/25 09:15:37;;;;;;;6.75;4.10;;;;;;;;;;5110732;28;20016;-79
2021/09/25 09:18:03;;;;;;;6.72;4.20;;;;;;;;;;5110418;28;20433;-79
2021/09/25 09:20:31;;;;;;;5.78;3.85;;;;;;;;;;5110153;28;20111;-78
2021/09/25 09:23:12;;;;;;;5.35;4.13;;;;;;;;;;5110514;28;20031;-78
2021/09/25 09:25:39;;;;;;;6.15;4.10;;;;;;;;;;5111524;28;20042;-79
2021/09/25 09:28:11;;;;;;;5.93;4.20;;;;;;;;;;5112527;28;20100;-79
2021/09/25 09:30:45;;;;;;;5.70;4.03;;;;;;;;;;5110373;28;20020;-78
2021/09/25 09:33:11;;;;;;;5.47;3.90;;;;;;;;;;5110593;28;20028;-79
2021/09/25 09:35:37;;;;;;;5.05;4.00;;;;;;;;;;5101849;28;20501;-78
2021/09/25 09:38:03;;;;;;;6.57;3.78;;;;;;;;;;5109635;28;20039;-78
2021/09/25 09:40:29;;;;;;;6.07;4.40;;;;;;;;;;5112624;28;20016;-78
2021/09/25 09:42:57;;;;;;;5.40;3.90;;;;;;;;;;5111290;28;20102;-78
2021/09/25 09:45:27;;;;;;;7.57;4.20;;;;;;;;;;5110440;28;20020;-78
2021/09/25 09:47:53;;;;;;;6.00;4.30;;;;;;;;;;5110202;28;20436;-77
2021/09/25 09:50:20;;;;;;;6.70;3.90;;;;;;;;;;5110413;28;20542;-78
2021/09/25 09:52:47;;;;;;;6.35;3.92;;;;;;;;;;5109239;28;20479;-78
2021/09/25 09:55:23;;;;;;;6.50;3.83;;;;;;;;;;5113767;28;20043;-77
2021/09/25 09:58:02;;;;;;;5.25;4.00;;;;;;;;;;5112417;28;20039;-78
2021/09/25 10:00:28;;;;;;;6.05;4.50;;;;;;;;;;5105035;28;20024;-77
2021/09/25 10:02:54;;;;;;;6.07;3.78;;;;;;;;;;5103366;28;20023;-75
2021/09/25 10:05:20;;;;;;;6.57;4.30;;;;;;;;;;5101220;28;20066;-74
2021/09/25 10:07:47;;;;;;;8.75;4.20;;;;;;;;;;5104210;28;20032;-73
2021/09/25 10:10:13;;;;;;;5.95;4.15;;;;;;;;;;5104689;28;20387;-73
2021/09/25 10:12:40;;;;;;;6.03;3.85;;;;;;;;;;5104695;28;20031;-74
2021/09/25 10:15:07;;;;;;;6.72;4.57;;;;;;;;;;5104802;28;20031;-74
2021/09/25 10:17:33;;;;;;;6.93;4.53;;;;;;;;;;5108362;28;20495;-74
2021/09/25 10:20:00;;;;;;;8.40;4.00;;;;;;;;;;5108481;28;20024;-75
2021/09/25 10:22:28;;;;;;;7.15;4.30;;;;;;;;;;5112101;28;20370;-73
2021/09/25 10:24:58;;;;;;;6.25;4.10;;;;;;;;;;5110538;28;20681;-73
2021/09/25 10:27:27;;;;;;;6.85;4.05;;;;;;;;;;5108629;28;20048;-77
2021/09/25 10:29:53;;;;;;;6.60;3.90;;;;;;;;;;5101485;28;20092;-76
2021/09/25 10:32:26;;;;;;;7.55;4.20;;;;;;;;;;5101563;28;20063;-79
2021/09/25 10:35:03;;;;;;;6.45;4.10;;;;;;;;;;5101007;28;20042;-75
2021/09/25 10:37:35;;;;;;;6.88;4.00;;;;;;;;;;5101934;28;20114;-76
2021/09/25 10:40:01;;;;;;;8.43;3.70;;;;;;;;;;5101023;28;20012;-78
2021/09/25 10:42:44;;;;;;;6.95;3.90;;;;;;;;;;5101464;28;20027;-77
2021/09/25 10:45:12;;;;;;;7.13;3.95;;;;;;;;;;5100362;28;20055;-72
2021/09/25 10:47:38;;;;;;;6.60;3.88;;;;;;;;;;5102213;28;20028;-76
2021/09/25 10:50:10;;;;;;;5.38;3.90;;;;;;;;;;5099611;28;20042;-79
2021/09/25 10:52:50;;;;;;;4.55;3.85;;;;;;;;;;5102147;28;20035;-79
2021/09/25 10:55:19;;;;;;;11.32;4.63;;;;;;;;;;5104254;28;20020;-69
2021/09/25 10:58:05;;;;;;;6.03;3.92;;;;;;;;;;5096096;28;20089;-70
2021/09/25 11:00:31;;;;;;;5.75;4.07;;;;;;;;;;5100404;28;20034;-72
2021/09/25 11:02:57;;;;;;;6.03;4.22;;;;;;;;;;5100214;28;20031;-74
2021/09/25 11:05:41;;;;;;;5.20;3.80;;;;;;;;;;5101247;28;20066;-73
2021/09/25 11:08:16;;;;;;;6.78;4.18;;;;;;;;;;5100293;28;20048;-70
2021/09/25 11:11:04;;;;;;;4.93;3.78;;;;;;;;;;5097891;28;20552;-70
2021/09/25 11:13:48;;;;;;;5.50;3.78;;;;;;;;;;5100208;28;20051;-71
2021/09/25 11:16:14;;;;;;;5.40;4.00;;;;;;;;;;5100519;28;20028;-73
2021/09/25 11:18:50;;;;;;;7.22;4.57;;;;;;;;;;5103864;28;20070;-71
2021/09/25 11:21:17;;;;;;;6.38;4.32;;;;;;;;;;5105634;28;20024;-70
2021/09/25 11:23:46;;;;;;;6.53;4.47;;;;;;;;;;5097678;28;20106;-71
2021/09/25 11:26:14;;;;;;;6.35;4.60;;;;;;;;;;5100634;28;20817;-72
2021/09/25 11:28:43;;;;;;;7.15;4.60;;;;;;;;;;5109812;28;20119;-72
2021/09/25 11:31:10;;;;;;;8.23;4.75;;;;;;;;;;5111594;28;20103;-72
2021/09/25 11:33:39;;;;;;;7.18;4.55;;;;;;;;;;5111065;28;20211;-72
2021/09/25 11:36:11;;;;;;;6.25;4.90;;;;;;;;;;5110933;28;20068;-73
2021/09/25 11:38:44;;;;;;;5.22;4.30;;;;;;;;;;5107104;28;20070;-72
2021/09/25 11:41:16;;;;;;;5.63;4.18;;;;;;;;;;5094238;28;20076;-73
2021/09/25 11:43:54;;;;;;;6.32;4.40;;;;;;;;;;5111793;28;20043;-73
2021/09/25 11:46:20;;;;;;;8.55;4.50;;;;;;;;;;5110204;28;20047;-72
2021/09/25 11:48:46;;;;;;;7.93;4.70;;;;;;;;;;5098893;28;20078;-73
2021/09/25 11:51:12;;;;;;;7.60;4.78;;;;;;;;;;5107274;28;20026;-72
2021/09/25 11:53:43;;;;;;;6.88;4.68;;;;;;;;;;5109206;28;20395;-71
2021/09/25 11:56:09;;;;;;;7.43;4.50;;;;;;;;;;5110393;28;20494;-71
2021/09/25 11:58:36;;;;;;;5.43;4.20;;;;;;;;;;5100864;28;20039;-73
2021/09/25 12:01:03;;;;;;;6.55;4.05;;;;;;;;;;5108740;28;20019;-74
2021/09/25 12:03:31;;;;;;;6.40;4.63;;;;;;;;;;5111200;28;20026;-74
2021/09/25 12:05:59;;;;;;;7.68;4.68;;;;;;;;;;5104185;28;20211;-74
2021/09/25 12:08:27;;;;;;;8.57;4.70;;;;;;;;;;5102023;27;20019;-74
2021/09/25 12:10:54;;;;;;;5.68;4.50;;;;;;;;;;5111626;28;20024;-74
2021/09/25 12:13:22;;;;;;;9.13;5.35;;;;;;;;;;5113101;28;20012;-74
2021/09/25 12:15:49;;;;;;;11.43;5.53;;;;;;;;;;5106048;28;20060;-75
2021/09/25 12:18:21;;;;;;;14.98;5.80;;;;;;;;;;5106569;28;20044;-74
2021/09/25 12:21:01;;;;;;;9.85;5.22;;;;;;;;;;5111032;28;20076;-73
2021/09/25 12:23:31;;;;;;;6.82;5.32;;;;;;;;;;5111032;28;20077;-72
2021/09/25 12:25:58;;;;;;;6.22;5.38;;;;;;;;;;5110938;28;20352;-73
2021/09/25 12:28:31;;;;;;;9.40;5.25;;;;;;;;;;5111198;28;20122;-74
2021/09/25 12:30:59;;;;;;;8.20;5.50;;;;;;;;;;5112590;28;20023;-75
2021/09/25 12:33:25;;;;;;;6.25;5.22;;;;;;;;;;5110720;28;20028;-75
2021/09/25 12:36:09;;;;;;;8.00;5.55;;;;;;;;;;5109773;28;20023;-74
2021/09/25 12:38:37;;;;;;;7.13;5.65;;;;;;;;;;5110851;28;20011;-74
2021/09/25 12:41:04;;;;;;;7.82;5.40;;;;;;;;;;5102056;28;20475;-74
2021/09/25 12:43:39;;;;;;;9.57;5.80;;;;;;;;;;5112815;28;20098;-73
2021/09/25 12:46:05;;;;;;;8.52;5.20;;;;;;;;;;5113422;28;20470;-74
2021/09/25 12:48:31;;;;;;;6.85;5.60;;;;;;;;;;5110479;28;20034;-72
2021/09/25 12:50:57;;;;;;;7.82;5.03;;;;;;;;;;5110544;28;20024;-74
2021/09/25 12:53:23;;;;;;;8.57;5.22;;;;;;;;;;5110574;28;20023;-74
2021/09/25 12:55:49;;;;;;;6.88;5.10;;;;;;;;;;5110612;28;20417;-75
2021/09/25 12:58:17;;;;;;;9.38;5.45;;;;;;;;;;5113743;28;20100;-70
2021/09/25 13:00:46;;;;;;;6.22;5.32;;;;;;;;;;5110605;28;20031;-72
2021/09/25 13:03:12;;;;;;;7.10;5.28;;;;;;;;;;5110311;28;20028;-72
2021/09/25 13:05:38;;;;;;;7.13;5.25;;;;;;;;;;5110039;28;20036;-73
2021/09/25 13:08:15;;;;;;;8.63;5.55;;;;;;;;;;5109487;28;20012;-73
2021/09/25 13:10:50;;;;;;;6.40;5.27;;;;;;;;;;5103136;28;20028;-73
2021/09/25 13:13:17;;;;;;;9.63;5.93;;;;;;;;;;5109758;28;20023;-75
2021/09/25 13:15:44;;;;;;;8.45;5.63;;;;;;;;;;5112139;28;20509;-73
2021/09/25 13:18:11;;;;;;;8.48;6.00;;;;;;;;;;5109913;28;20028;-73
2021/09/25 13:20:37;;;;;;;8.87;5.43;;;;;;;;;;5109518;28;20240;-72
2021/09/25 13:23:08;;;;;;;7.38;5.65;;;;;;;;;;5109752;28;20403;-74
2021/09/25 13:25:34;;;;;;;8.68;5.47;;;;;;;;;;5111830;28;20093;-73
2021/09/25 13:28:01;;;;;;;8.40;5.80;;;;;;;;;;5099977;28;21566;-73
2021/09/25 13:30:27;;;;;;;9.00;6.05;;;;;;;;;;5108169;28;20459;-72
2021/09/25 13:32:53;;;;;;;10.00;6.63;;;;;;;;;;5096255;28;20023;-72
2021/09/25 13:35:19;;;;;;;6.75;5.40;;;;;;;;;;5105883;28;20023;-72
2021/09/25 13:37:45;;;;;;;8.20;5.82;;;;;;;;;;5105176;28;20028;-72
2021/09/25 13:40:12;;;;;;;9.05;5.60;;;;;;;;;;5105062;28;20051;-72
2021/09/25 13:42:38;;;;;;;9.38;6.43;;;;;;;;;;5092531;28;20071;-72
2021/09/25 13:45:04;;;;;;;8.18;6.57;;;;;;;;;;5110103;28;20081;-72
2021/09/25 13:47:31;;;;;;;11.05;7.07;;;;;;;;;;5102765;28;20114;-72
2021/09/25 13:49:57;;;;;;;9.27;6.97;;;;;;;;;;5106411;28;20100;-72
2021/09/25 13:52:23;;;;;;;10.13;6.35;;;;;;;;;;5098049;28;20486;-71
2021/09/25 13:54:49;;;;;;;10.10;6.63;;;;;;;;;;5106548;28;20024;-71
2021/09/25 13:57:15;;;;;;;8.73;6.15;;;;;;;;;;5107701;28;20510;-71
2021/09/25 13:59:41;;;;;;;7.53;6.07;;;;;;;;;;5097865;28;20063;-72
2021/09/25 14:02:09;;;;;;;7.80;5.70;;;;;;;;;;5093301;28;20051;-71
2021/09/25 14:04:36;;;;;;;8.80;5.75;;;;;;;;;;5108325;28;20036;-72
2021/09/25 14:07:02;;;;;;;11.75;6.25;;;;;;;;;;5110047;28;20030;-72
2021/09/25 14:09:32;;;;;;;9.38;6.20;;;;;;;;;;5108883;28;20027;-71
2021/09/25 14:11:59;;;;;;;8.18;5.97;;;;;;;;;;5104694;28;20319;-71
2021/09/25 14:14:25;;;;;;;10.93;6.23;;;;;;;;;;5098552;28;20268;-71
2021/09/25 14:16:51;;;;;;;9.20;6.30;;;;;;;;;;5108408;28;20656;-71
2021/09/25 14:19:17;;;;;;;10.18;6.88;;;;;;;;;;5104944;28;20475;-71
2021/09/25 14:21:43;;;;;;;10.30;6.70;;;;;;;;;;5108490;28;20035;-71
2021/09/25 14:24:09;;;;;;;9.38;6.78;;;;;;;;;;5107625;28;20030;-71
2021/09/25 14:26:37;;;;;;;9.23;7.40;;;;;;;;;;5096113;28;20059;-71
2021/09/25 14:29:06;;;;;;;10.48;7.18;;;;;;;;;;5099336;28;20040;-71
2021/09/25 14:31:32;;;;;;;8.18;6.55;;;;;;;;;;5109460;28;20042;-73
2021/09/25 14:33:58;;;;;;;11.05;6.95;;;;;;;;;;5107833;28;20242;-73
2021/09/25 14:36:24;;;;;;;10.00;7.10;;;;;;;;;;5097187;28;20114;-73
2021/09/25 14:38:50;;;;;;;12.05;7.43;;;;;;;;;;5107152;28;20039;-72